메인 페이지
METAR-TAF:

METAR-TAF

공항 :

Punta Arenas, 칠레

위도: 53-00S, 경도: 070-51W, 고도: 37m

현재 날씨관측

예보는 51분 전, 23:00시(UTC)에 발표되었습니다.
26kt
온도 4°C
습도 75%
기압 998 hPa
시정 10km 이상
고도 3000ft 상공 구름 보통

METAR: SCCI 012300Z 27026KT 9999 SCT030 04/00 Q0998 NOSIG

시각: 19:51 (23:51 UTC)

예보

예보는 1 시간 20분 전, 22:31시(UTC)에 발표되었습니다.
예보 대상 시간: 02일 00시부터 03일 00시까지 (UTC)
서남서20kt, 순간 최대 풍속 30kt
시정: 8000m
고도 2600ft 상공 구름 보통
약한소나기
일시적
02일 03시부터 02일 13시까지 (UTC)
서남서25kt, 순간 최대 풍속 35kt
시정: 3000m
고도 1500ft 상공 구름 많음, 타워링 적운.
약한소낙눈, 약한소나기, 눈
전환 중
02일 15시부터 02일 17시까지 (UTC)
시정 10km 이상
고도 3600ft 상공 구름 보통
약한소나기
전환 중
02일 21시부터 02일 23시까지 (UTC)
20kt

TAF: SCCI 012231Z 0200/0300 25020G30KT 8000 -SHRA SCT026 TN01/0210Z TX06/0218Z TEMPO 0203/0213 24025G35KT 3000 -SHSN -SHRASN BKN015TCU BECMG 0215/0217 9999 -SHRA SCT036 BECMG 0221/0223 27020KT

4,000개 이상의 공항 관측 자료 및 예보 (METAR 및 TAF 보고).

지도상에서 검색 가능한 기상관측소가 노란 점과 빨간 점으로 표시되어 있습니다.

기상관측소 명을 보려면 표시 위로 마우스를 이동하세요.

날씨 관측과 예보를 보려면 클릭하세요.

지도 변경 : 확대하려면 엑스 표시가 있는 녹색 버튼, 축소하려면 빼기 표시가 있는 녹색 버튼, 다음 페이지의 지도를 보려면 녹색 화살표를 클릭하세요.


METAR-TAF: